createdAt,value
2019-02-25T00:03:51.769Z,103375.39
2019-02-25T00:07:57.211Z,103382.70
2019-02-25T00:12:02.680Z,103376.70
2019-02-25T00:16:09.528Z,103382.16
2019-02-25T00:20:15.102Z,103380.97
2019-02-25T00:24:20.453Z,103389.17
2019-02-25T00:28:25.891Z,103376.04
2019-02-25T00:32:31.336Z,103370.34
2019-02-25T00:36:36.834Z,103373.00
2019-02-25T00:40:42.349Z,103361.06
2019-02-25T00:44:47.845Z,103367.56
2019-02-25T00:48:53.275Z,103366.10
2019-02-25T00:52:58.902Z,103363.54
2019-02-25T00:57:04.346Z,103358.59
2019-02-25T01:01:09.786Z,103348.73
2019-02-25T01:05:16.445Z,103355.37
2019-02-25T01:09:21.895Z,103365.80
2019-02-25T01:13:27.349Z,103366.90
2019-02-25T01:17:32.735Z,103364.02
2019-02-25T01:21:38.581Z,103370.60
2019-02-25T01:25:44.099Z,103374.98
2019-02-25T01:29:49.852Z,103384.84
2019-02-25T01:33:55.655Z,103376.61
2019-02-25T01:38:01.215Z,103377.55
2019-02-25T01:42:06.774Z,103370.19
2019-02-25T01:46:12.167Z,103381.07
2019-02-25T01:50:17.673Z,103367.39
2019-02-25T01:54:23.118Z,103368.42
2019-02-25T01:58:28.559Z,103371.03
2019-02-25T02:02:33.870Z,103361.84
2019-02-25T02:06:39.601Z,103361.92
2019-02-25T02:10:45.111Z,103365.59
2019-02-25T02:14:50.634Z,103351.42
2019-02-25T02:18:55.855Z,103346.28
2019-02-25T02:23:01.604Z,103342.69
2019-02-25T02:27:07.491Z,103349.08
2019-02-25T02:31:12.910Z,103349.08
2019-02-25T02:35:18.965Z,103337.25
2019-02-25T02:39:24.547Z,103344.69
2019-02-25T02:43:30.099Z,103339.54
2019-02-25T02:48:04.455Z,103345.36
2019-02-25T02:52:10.192Z,103346.91
2019-02-25T02:56:15.632Z,103349.22
2019-02-25T03:00:21.308Z,103347.64
2019-02-25T03:04:26.666Z,103344.84
2019-02-25T03:08:32.396Z,103346.50
2019-02-25T03:12:38.139Z,103356.80
2019-02-25T03:16:43.803Z,103351.22
2019-02-25T03:20:49.552Z,103348.13
2019-02-25T03:24:55.057Z,103341.63
2019-02-25T03:29:00.568Z,103344.99
2019-02-25T03:33:06.059Z,103347.41
2019-02-25T03:37:11.712Z,103345.33
2019-02-25T03:41:17.198Z,103351.22
2019-02-25T03:45:23.034Z,103350.84
2019-02-25T03:49:28.412Z,103360.73
2019-02-25T03:53:34.129Z,103356.72
2019-02-25T03:57:40.226Z,103357.75
2019-02-25T04:01:45.683Z,103347.42
2019-02-25T04:05:51.118Z,103354.95
2019-02-25T04:09:56.914Z,103346.07
2019-02-25T04:14:02.334Z,103349.00
2019-02-25T04:18:07.928Z,103356.72
2019-02-25T04:22:13.353Z,103352.66
2019-02-25T04:26:18.991Z,103361.94
2019-02-25T04:30:24.454Z,103360.86
2019-02-25T04:34:29.963Z,103360.52
2019-02-25T04:38:35.408Z,103349.58
2019-02-25T04:42:41.145Z,103357.44
2019-02-25T04:46:46.694Z,103348.68
2019-02-25T04:50:52.404Z,103351.05
2019-02-25T04:54:57.931Z,103356.39
2019-02-25T04:59:03.349Z,103349.11
2019-02-25T05:03:09.209Z,103351.61
2019-02-25T05:07:14.672Z,103348.47
2019-02-25T05:11:21.797Z,103344.69
2019-02-25T05:15:27.938Z,103349.28
2019-02-25T05:19:33.698Z,103340.09
2019-02-25T05:23:39.424Z,103339.74
2019-02-25T05:27:44.934Z,103331.66
2019-02-25T05:31:50.416Z,103343.19
2019-02-25T05:35:55.876Z,103340.23
2019-02-25T05:40:01.318Z,103346.95
2019-02-25T05:44:08.558Z,103348.17
2019-02-25T05:48:14.667Z,103349.92
2019-02-25T05:52:20.211Z,103355.90
2019-02-25T05:56:25.826Z,103353.50
2019-02-25T06:00:32.235Z,103347.49
2019-02-25T06:04:37.811Z,103334.23
2019-02-25T06:08:43.251Z,103336.41
2019-02-25T06:12:48.695Z,103332.30
2019-02-25T06:16:54.416Z,103343.05
2019-02-25T06:21:01.904Z,103334.70
2019-02-25T06:25:08.084Z,103343.47
2019-02-25T06:29:13.654Z,103343.61
2019-02-25T06:33:19.194Z,103353.67
2019-02-25T06:37:25.201Z,103363.53
2019-02-25T06:41:30.801Z,103365.25
2019-02-25T06:45:36.392Z,103367.97
2019-02-25T06:49:42.479Z,103362.37
2019-02-25T06:53:47.965Z,103372.41
2019-02-25T06:57:53.728Z,103376.53
2019-02-25T07:01:59.097Z,103374.48
2019-02-25T07:06:24.544Z,103373.05
2019-02-25T07:10:52.429Z,103373.45
2019-02-25T07:15:04.879Z,103379.40
2019-02-25T07:19:30.281Z,103376.16
2019-02-25T07:24:01.154Z,103370.00
2019-02-25T07:28:24.494Z,103358.91
2019-02-25T07:32:59.543Z,103367.77
2019-02-25T07:37:30.047Z,103359.78
2019-02-25T07:41:44.793Z,103358.45
2019-02-25T07:46:07.809Z,103351.17
2019-02-25T07:50:47.209Z,103358.53
2019-02-25T07:55:19.574Z,103363.50
2019-02-25T07:59:43.866Z,103374.72
2019-02-25T08:03:55.127Z,103378.56
2019-02-25T08:08:12.175Z,103384.01
2019-02-25T08:12:23.357Z,103385.36
2019-02-25T08:16:56.885Z,103390.13
2019-02-25T08:21:13.426Z,103407.83
2019-02-25T08:25:47.645Z,103408.14
2019-02-25T08:30:09.346Z,103406.44
2019-02-25T08:34:34.198Z,103399.94
2019-02-25T08:38:52.197Z,103407.78
2019-02-25T08:43:10.466Z,103415.94
2019-02-25T08:47:20.403Z,103424.61
2019-02-25T08:51:26.969Z,103421.39
2019-02-25T08:55:32.789Z,103424.70
2019-02-25T08:59:38.512Z,103424.89
2019-02-25T09:03:45.026Z,103440.22
2019-02-25T09:07:50.464Z,103432.67
2019-02-25T09:11:56.031Z,103443.95
2019-02-25T09:16:01.523Z,103432.99
2019-02-25T09:20:07.016Z,103439.63
2019-02-25T09:24:12.437Z,103446.66
2019-02-25T09:28:17.885Z,103436.63
2019-02-25T09:32:23.338Z,103432.02
2019-02-25T09:36:28.776Z,103435.33
2019-02-25T09:40:34.234Z,103437.89
2019-02-25T09:44:39.579Z,103443.80
2019-02-25T09:48:45.317Z,103448.44
2019-02-25T09:52:51.016Z,103440.84
2019-02-25T09:56:56.750Z,103434.52
2019-02-25T10:01:02.479Z,103441.57
2019-02-25T10:05:08.519Z,103440.45
2019-02-25T10:09:13.971Z,103445.77
2019-02-25T10:13:19.842Z,103450.39
2019-02-25T10:17:25.274Z,103448.11
2019-02-25T10:21:31.011Z,103443.22
2019-02-25T10:25:36.755Z,103449.75
2019-02-25T10:29:42.077Z,103446.23
2019-02-25T10:33:50.928Z,103440.46
2019-02-25T10:37:56.719Z,103446.41
2019-02-25T10:42:02.307Z,103442.17
2019-02-25T10:46:09.514Z,103445.64
2019-02-25T10:50:15.138Z,103432.92
2019-02-25T10:54:21.262Z,103431.62
2019-02-25T10:58:30.720Z,103432.15
2019-02-25T11:02:43.878Z,103430.27
2019-02-25T11:06:42.281Z,103425.77
2019-02-25T11:11:06.648Z,103412.04
2019-02-25T11:15:13.838Z,103407.09
2019-02-25T11:19:19.746Z,103400.86
2019-02-25T11:23:25.264Z,103405.14
2019-02-25T11:27:33.073Z,103384.36
2019-02-25T11:31:38.281Z,103383.15
2019-02-25T11:35:45.808Z,103381.76
2019-02-25T11:39:52.595Z,103382.59
2019-02-25T11:43:58.683Z,103393.94
2019-02-25T11:48:04.183Z,103378.30
2019-02-25T11:52:09.873Z,103369.75
2019-02-25T11:56:15.500Z,103366.79
2019-02-25T12:00:22.344Z,103363.14
2019-02-25T12:04:28.143Z,103355.73
2019-02-25T12:08:33.546Z,103361.72
2019-02-25T12:12:38.993Z,103352.69
2019-02-25T12:16:44.729Z,103349.16
2019-02-25T12:20:50.196Z,103352.69
2019-02-25T12:24:55.592Z,103344.12
2019-02-25T12:29:10.374Z,103347.06
2019-02-25T12:33:08.499Z,103341.09
2019-02-25T12:37:13.964Z,103326.48
2019-02-25T12:41:19.863Z,103306.78
2019-02-25T12:45:25.319Z,103306.78
2019-02-25T12:49:31.223Z,103293.00
2019-02-25T12:53:37.885Z,103276.98
2019-02-25T12:57:43.398Z,103268.86
2019-02-25T13:01:49.000Z,103265.70
2019-02-25T13:05:54.653Z,103246.78
2019-02-25T13:10:00.304Z,103235.17
2019-02-25T13:14:05.825Z,103209.63
2019-02-25T13:18:11.244Z,103191.71
2019-02-25T13:22:16.626Z,103180.20
2019-02-25T13:26:22.367Z,103179.47
2019-02-25T13:30:27.867Z,103184.84
2019-02-25T13:34:33.269Z,103184.22
2019-02-25T13:38:38.987Z,103179.97
2019-02-25T13:42:44.489Z,103181.66
2019-02-25T13:46:50.060Z,103179.00
2019-02-25T13:50:55.565Z,103173.77
2019-02-25T13:55:01.154Z,103173.39
2019-02-25T13:59:07.206Z,103166.66
2019-02-25T14:03:12.973Z,103159.89
2019-02-25T14:07:18.508Z,103163.86
2019-02-25T14:11:23.872Z,103158.95
2019-02-25T14:15:29.330Z,103154.30
2019-02-25T14:19:34.754Z,103160.57
2019-02-25T14:23:40.668Z,103168.72
2019-02-25T14:27:46.127Z,103178.34
2019-02-25T14:31:52.480Z,103186.42
2019-02-25T14:35:58.223Z,103190.83
2019-02-25T14:40:05.978Z,103180.89
2019-02-25T14:44:11.302Z,103178.16
2019-02-25T14:48:20.429Z,103179.50
2019-02-25T14:52:26.733Z,103176.54
2019-02-25T14:56:31.661Z,103175.37
2019-02-25T15:00:38.228Z,103175.13
2019-02-25T15:04:43.982Z,103173.09
2019-02-25T15:08:49.386Z,103179.16
2019-02-25T15:12:58.814Z,103177.48
2019-02-25T15:17:03.868Z,103176.13
2019-02-25T15:21:11.226Z,103184.02
2019-02-25T15:25:17.352Z,103192.30
2019-02-25T15:29:23.119Z,103194.17
2019-02-25T15:33:30.016Z,103191.61
2019-02-25T15:37:36.504Z,103192.17
2019-02-25T15:41:43.967Z,103193.44
2019-02-25T15:45:49.132Z,103192.13
2019-02-25T15:49:59.752Z,103187.21
2019-02-25T15:54:02.922Z,103188.08
2019-02-25T15:58:08.771Z,103193.17
2019-02-25T16:02:14.528Z,103198.63
2019-02-25T16:06:19.982Z,103193.61
2019-02-25T16:10:25.551Z,103197.98
2019-02-25T16:14:31.010Z,103193.48
2019-02-25T16:18:36.573Z,103191.55
2019-02-25T16:22:42.654Z,103197.39
2019-02-25T16:26:48.857Z,103197.70
2019-02-25T16:30:54.435Z,103209.73
2019-02-25T16:35:00.274Z,103212.82
2019-02-25T16:39:09.634Z,103208.34
2019-02-25T16:43:15.623Z,103212.96
2019-02-25T16:47:31.911Z,103219.42
2019-02-25T16:51:30.235Z,103224.02
2019-02-25T16:55:35.773Z,103225.20
2019-02-25T16:59:41.269Z,103222.92
2019-02-25T17:03:48.215Z,103223.63
2019-02-25T17:07:55.989Z,103229.00
2019-02-25T17:12:02.871Z,103228.32
2019-02-25T17:16:17.883Z,103232.09
2019-02-25T17:20:16.765Z,103232.41
2019-02-25T17:24:24.009Z,103238.73
2019-02-25T17:28:29.588Z,103239.16
2019-02-25T17:32:35.055Z,103242.95
2019-02-25T17:36:40.476Z,103255.13
2019-02-25T17:40:45.907Z,103255.44
2019-02-25T17:44:53.314Z,103249.15
2019-02-25T17:48:58.707Z,103257.92
2019-02-25T17:53:05.124Z,103254.52
2019-02-25T17:57:13.676Z,103246.42
2019-02-25T18:01:21.007Z,103247.59
2019-02-25T18:05:26.769Z,103247.94
2019-02-25T18:09:32.310Z,103235.48
2019-02-25T18:13:38.095Z,103236.63
2019-02-25T18:17:44.870Z,103239.50
2019-02-25T18:21:51.151Z,103238.56
2019-02-25T18:25:58.687Z,103237.71
2019-02-25T18:30:05.415Z,103229.80
2019-02-25T18:34:12.924Z,103230.14
2019-02-25T18:38:18.894Z,103227.22
2019-02-25T18:42:24.387Z,103222.28
2019-02-25T18:46:30.477Z,103220.87
2019-02-25T18:50:36.341Z,103220.06
2019-02-25T18:54:43.370Z,103218.88
2019-02-25T18:58:49.512Z,103217.75
2019-02-25T19:02:56.173Z,103215.84
2019-02-25T19:07:03.664Z,103217.31
2019-02-25T19:11:13.043Z,103223.00
2019-02-25T19:15:17.608Z,103217.17
2019-02-25T19:19:23.337Z,103223.27
2019-02-25T19:23:31.270Z,103216.83
2019-02-25T19:27:36.513Z,103213.60
2019-02-25T19:31:42.925Z,103220.01
2019-02-25T19:35:48.599Z,103222.92
2019-02-25T19:39:54.163Z,103218.08
2019-02-25T19:44:03.287Z,103225.20
2019-02-25T19:48:07.279Z,103234.50
2019-02-25T19:52:14.437Z,103225.65
2019-02-25T19:56:20.871Z,103223.73
2019-02-25T20:00:28.271Z,103216.64
2019-02-25T20:04:35.976Z,103209.88
2019-02-25T20:08:42.100Z,103204.77
2019-02-25T20:12:53.125Z,103206.02
2019-02-25T20:16:59.437Z,103209.25
2019-02-25T20:21:06.461Z,103199.97
2019-02-25T20:25:14.471Z,103200.22
2019-02-25T20:29:19.891Z,103200.54
2019-02-25T20:33:30.460Z,103190.11
2019-02-25T20:37:33.889Z,103185.02
2019-02-25T20:41:40.064Z,103192.22
2019-02-25T20:45:45.503Z,103186.65
2019-02-25T20:49:53.698Z,103179.91
2019-02-25T20:53:59.778Z,103169.15
2019-02-25T20:58:05.329Z,103167.94
2019-02-25T21:02:15.805Z,103164.34
2019-02-25T21:06:21.095Z,103153.33
2019-02-25T21:10:32.756Z,103151.33
2019-02-25T21:14:42.714Z,103154.55
2019-02-25T21:18:52.925Z,103157.41
2019-02-25T21:23:02.851Z,103148.73
2019-02-25T21:27:06.425Z,103146.16
2019-02-25T21:31:16.196Z,103141.42
2019-02-25T21:35:23.534Z,103145.94
2019-02-25T21:39:27.943Z,103149.30
2019-02-25T21:43:35.468Z,103153.66
2019-02-25T21:47:41.023Z,103148.17
2019-02-25T21:51:48.015Z,103147.30
2019-02-25T21:55:55.379Z,103142.97
2019-02-25T22:00:02.987Z,103148.87
2019-02-25T22:04:12.970Z,103142.03
2019-02-25T22:08:26.691Z,103141.30
2019-02-25T22:12:33.191Z,103140.90
2019-02-25T22:16:44.007Z,103139.80
2019-02-25T22:20:49.225Z,103139.70
2019-02-25T22:24:54.481Z,103145.17
2019-02-25T22:29:01.751Z,103145.37
2019-02-25T22:33:12.738Z,103146.17
2019-02-25T22:37:16.758Z,103156.76
2019-02-25T22:41:22.935Z,103164.77
2019-02-25T22:45:31.454Z,103173.41
2019-02-25T22:49:36.708Z,103177.25
2019-02-25T22:53:42.145Z,103175.02
2019-02-25T22:57:50.952Z,103183.23
2019-02-25T23:01:55.013Z,103178.97
2019-02-25T23:06:00.438Z,103175.75
2019-02-25T23:10:08.410Z,103170.67
2019-02-25T23:14:14.036Z,103167.28
2019-02-25T23:18:28.032Z,103174.78
2019-02-25T23:22:34.937Z,103171.75
2019-02-25T23:26:41.078Z,103174.28
2019-02-25T23:30:46.584Z,103172.14
2019-02-25T23:34:52.759Z,103159.86
2019-02-25T23:38:59.565Z,103160.55
2019-02-25T23:43:07.460Z,103160.06
2019-02-25T23:47:13.451Z,103155.66
2019-02-25T23:51:19.563Z,103143.07
2019-02-25T23:55:27.947Z,103148.72
2019-02-25T23:59:34.067Z,103141.89
